Time;durP1;ratioP1;P1;durP2;ratioP2;P2;SDS_P1;SDS_P2;PMS_P1;PMS_P2;Temp;Humidity;BMP_temperature;BMP_pressure;BME280_temperature;BME280_humidity;BME280_pressure;Samples;Min_cycle;Max_cycle;Signal;HPM_P1;HPM_P2
2023/01/27 00:01:07;;;;;;;36.60;26.23;;;;;;;;;;5101009;28;20175;-79
2023/01/27 00:03:33;;;;;;;39.40;26.57;;;;;;;;;;5104685;28;20165;-79
2023/01/27 00:06:00;;;;;;;39.43;28.07;;;;;;;;;;5097621;28;21213;-78
2023/01/27 00:08:26;;;;;;;35.33;26.47;;;;;;;;;;5105205;28;20647;-78
2023/01/27 00:13:25;;;;;;;36.97;25.63;;;;;;;;;;5106895;28;20203;-79
2023/01/27 00:13:42;;;;;;;34.70;25.30;;;;;;;;;;5093860;28;20184;-78
2023/01/27 00:16:08;;;;;;;38.37;26.37;;;;;;;;;;5092210;28;20625;-78
2023/01/27 00:18:34;;;;;;;36.87;25.97;;;;;;;;;;5100634;28;20669;-80
2023/01/27 00:26:30;;;;;;;35.27;25.57;;;;;;;;;;5096029;28;20196;-79
2023/01/27 00:28:56;;;;;;;35.80;25.47;;;;;;;;;;5093830;28;20160;-79
2023/01/27 00:34:09;;;;;;;38.50;24.90;;;;;;;;;;5094105;28;20288;-79
2023/01/27 00:36:35;;;;;;;33.97;25.33;;;;;;;;;;5104152;28;20175;-79
2023/01/27 00:39:02;;;;;;;32.87;24.93;;;;;;;;;;5107253;28;20192;-79
2023/01/27 00:41:28;;;;;;;36.67;26.27;;;;;;;;;;5100562;28;20184;-79
2023/01/27 00:43:54;;;;;;;37.07;25.90;;;;;;;;;;5106818;28;20699;-79
2023/01/27 00:46:24;;;;;;;35.63;26.27;;;;;;;;;;5108947;28;20605;-79
2023/01/27 00:48:51;;;;;;;36.80;25.93;;;;;;;;;;5103856;28;20175;-78
2023/01/27 00:51:17;;;;;;;34.23;25.83;;;;;;;;;;5095940;28;20325;-79
2023/01/27 00:53:44;;;;;;;36.60;25.73;;;;;;;;;;5100096;28;20557;-79
2023/01/27 00:56:10;;;;;;;35.20;26.27;;;;;;;;;;5107016;28;20211;-79
2023/01/27 00:58:36;;;;;;;37.90;26.70;;;;;;;;;;5096667;28;20177;-78
2023/01/27 01:01:04;;;;;;;36.67;26.60;;;;;;;;;;5099631;28;20177;-79
2023/01/27 01:03:31;;;;;;;37.43;26.57;;;;;;;;;;5109217;28;20210;-79
2023/01/27 01:06:01;;;;;;;35.40;25.77;;;;;;;;;;5113125;27;20210;-79
2023/01/27 01:08:27;;;;;;;40.27;27.63;;;;;;;;;;5121666;27;20180;-78
2023/01/27 01:10:53;;;;;;;38.73;27.27;;;;;;;;;;5108509;28;20217;-79
2023/01/27 01:13:20;;;;;;;38.50;26.20;;;;;;;;;;5104176;28;20195;-79
2023/01/27 01:15:46;;;;;;;35.77;26.50;;;;;;;;;;5109133;28;20178;-79
2023/01/27 01:18:12;;;;;;;34.10;25.00;;;;;;;;;;5101863;28;20871;-79
2023/01/27 01:20:39;;;;;;;38.77;27.50;;;;;;;;;;5101275;28;20328;-79
2023/01/27 01:23:06;;;;;;;35.77;25.93;;;;;;;;;;5108847;28;20493;-79
2023/01/27 01:25:32;;;;;;;37.40;27.00;;;;;;;;;;5096321;28;20183;-79
2023/01/27 01:27:58;;;;;;;34.60;25.47;;;;;;;;;;5109099;28;20257;-79
2023/01/27 01:30:26;;;;;;;33.77;24.47;;;;;;;;;;5105425;28;20271;-79
2023/01/27 01:32:52;;;;;;;34.80;24.93;;;;;;;;;;5105835;28;20191;-79
2023/01/27 01:35:18;;;;;;;33.33;25.13;;;;;;;;;;5107431;28;20184;-79
2023/01/27 01:37:44;;;;;;;33.33;23.50;;;;;;;;;;5103333;28;20190;-78
2023/01/27 01:40:11;;;;;;;34.27;24.83;;;;;;;;;;5106137;28;20258;-80
2023/01/27 01:42:50;;;;;;;33.70;24.77;;;;;;;;;;5106400;28;20224;-79
2023/01/27 01:45:31;;;;;;;33.50;24.17;;;;;;;;;;5107044;28;20538;-79
2023/01/27 01:47:58;;;;;;;38.73;24.43;;;;;;;;;;5099871;28;20188;-79
2023/01/27 01:50:24;;;;;;;33.93;24.27;;;;;;;;;;5102596;27;20199;-78
2023/01/27 01:52:51;;;;;;;36.23;23.40;;;;;;;;;;5114230;27;20190;-79
2023/01/27 01:55:17;;;;;;;34.30;24.27;;;;;;;;;;5095682;27;20172;-79
2023/01/27 01:57:44;;;;;;;32.20;24.80;;;;;;;;;;5108442;28;20179;-79
2023/01/27 02:00:10;;;;;;;33.17;23.63;;;;;;;;;;5105090;27;20180;-79
2023/01/27 02:02:37;;;;;;;32.23;23.73;;;;;;;;;;5110726;27;20207;-79
2023/01/27 02:05:08;;;;;;;33.53;23.77;;;;;;;;;;5116112;27;20305;-79
2023/01/27 02:07:37;;;;;;;35.37;24.50;;;;;;;;;;5102961;28;20208;-79
2023/01/27 02:10:03;;;;;;;34.13;23.20;;;;;;;;;;5107343;28;20521;-78
2023/01/27 02:12:29;;;;;;;31.63;23.40;;;;;;;;;;5101968;28;20212;-78
2023/01/27 02:14:55;;;;;;;34.73;25.83;;;;;;;;;;5100693;28;20206;-80
2023/01/27 02:17:21;;;;;;;31.30;23.70;;;;;;;;;;5102055;28;20698;-77
2023/01/27 02:19:47;;;;;;;30.83;23.57;;;;;;;;;;5107063;28;20194;-79
2023/01/27 02:22:18;;;;;;;33.03;23.63;;;;;;;;;;5104172;28;20176;-79
2023/01/27 02:24:46;;;;;;;34.40;23.50;;;;;;;;;;5105652;28;20212;-80
2023/01/27 02:27:13;;;;;;;29.93;23.07;;;;;;;;;;5105846;28;20274;-80
2023/01/27 02:29:39;;;;;;;31.03;21.97;;;;;;;;;;5101073;28;20539;-81
2023/01/27 02:32:05;;;;;;;32.50;23.77;;;;;;;;;;5096491;28;20709;-80
2023/01/27 02:34:33;;;;;;;31.30;22.93;;;;;;;;;;5108129;28;20559;-79
2023/01/27 02:37:03;;;;;;;32.67;23.40;;;;;;;;;;5097147;28;20179;-79
2023/01/27 02:39:35;;;;;;;34.87;24.10;;;;;;;;;;5095726;28;20184;-78
2023/01/27 02:42:02;;;;;;;31.53;22.77;;;;;;;;;;5107574;28;20690;-79
2023/01/27 02:44:28;;;;;;;34.40;24.70;;;;;;;;;;5105580;28;20625;-79
2023/01/27 02:46:54;;;;;;;36.53;25.07;;;;;;;;;;5104966;28;20187;-78
2023/01/27 02:49:20;;;;;;;31.80;23.60;;;;;;;;;;5095058;27;20617;-79
2023/01/27 02:51:46;;;;;;;34.10;24.37;;;;;;;;;;5106040;28;20213;-79
2023/01/27 02:54:12;;;;;;;33.27;24.63;;;;;;;;;;5106259;27;20180;-79
2023/01/27 02:56:38;;;;;;;32.77;23.37;;;;;;;;;;5099871;27;20176;-79
2023/01/27 02:59:04;;;;;;;33.30;24.40;;;;;;;;;;5113347;27;20190;-80
2023/01/27 03:01:31;;;;;;;31.87;23.80;;;;;;;;;;5101515;27;20186;-79
2023/01/27 03:03:57;;;;;;;31.60;23.83;;;;;;;;;;5098584;28;20176;-79
2023/01/27 03:06:23;;;;;;;32.53;24.60;;;;;;;;;;5105045;27;20183;-80
2023/01/27 03:08:49;;;;;;;34.63;25.37;;;;;;;;;;5099340;27;20643;-79
2023/01/27 03:12:18;;;;;;;33.97;24.83;;;;;;;;;;5101413;28;20210;-79
2023/01/27 03:14:11;;;;;;;32.53;24.70;;;;;;;;;;5100570;28;20543;-79
2023/01/27 03:19:21;;;;;;;35.27;24.30;;;;;;;;;;5107959;28;20193;-78
2023/01/27 03:21:51;;;;;;;32.97;24.43;;;;;;;;;;5095513;28;20172;-79
2023/01/27 03:24:17;;;;;;;36.67;26.47;;;;;;;;;;5093126;28;20183;-79
2023/01/27 03:26:43;;;;;;;33.37;23.57;;;;;;;;;;5098092;28;20633;-79
2023/01/27 03:31:54;;;;;;;36.57;24.83;;;;;;;;;;5094006;28;20356;-79
2023/01/27 03:34:20;;;;;;;37.07;26.70;;;;;;;;;;5091562;28;20212;-79
2023/01/27 03:47:44;;;;;;;36.60;26.20;;;;;;;;;;5098814;28;20198;-78
2023/01/27 03:50:12;;;;;;;39.03;27.00;;;;;;;;;;5098653;28;20179;-79
2023/01/27 03:52:39;;;;;;;37.00;26.30;;;;;;;;;;5104913;28;20195;-79
2023/01/27 03:55:05;;;;;;;35.73;25.87;;;;;;;;;;5105765;28;20224;-78
2023/01/27 03:57:32;;;;;;;34.87;25.23;;;;;;;;;;5105173;28;20641;-79
2023/01/27 03:59:58;;;;;;;35.20;25.57;;;;;;;;;;5104760;28;20657;-80
2023/01/27 04:07:53;;;;;;;37.73;27.90;;;;;;;;;;5099309;28;20707;-79
2023/01/27 04:10:19;;;;;;;40.67;27.67;;;;;;;;;;5100832;28;20175;-79
2023/01/27 04:12:47;;;;;;;37.33;27.67;;;;;;;;;;5099975;28;20196;-79
2023/01/27 04:15:13;;;;;;;39.50;26.80;;;;;;;;;;5113702;27;20187;-79
2023/01/27 04:17:40;;;;;;;40.43;26.70;;;;;;;;;;5105377;27;20232;-79
2023/01/27 04:20:07;;;;;;;37.83;26.57;;;;;;;;;;5114558;27;20171;-79
2023/01/27 04:22:33;;;;;;;37.30;26.83;;;;;;;;;;5097055;27;20177;-79
2023/01/27 04:24:59;;;;;;;37.03;26.60;;;;;;;;;;5107758;28;20183;-79
2023/01/27 04:27:26;;;;;;;38.73;27.10;;;;;;;;;;5111893;27;20894;-78
2023/01/27 04:29:52;;;;;;;37.97;28.03;;;;;;;;;;5113893;27;20317;-79
2023/01/27 04:32:18;;;;;;;36.87;26.97;;;;;;;;;;5112587;27;20235;-79
2023/01/27 04:34:44;;;;;;;36.80;27.27;;;;;;;;;;5109251;27;20254;-79
2023/01/27 04:37:10;;;;;;;40.00;28.23;;;;;;;;;;5108463;28;20599;-79
2023/01/27 04:39:36;;;;;;;36.53;26.60;;;;;;;;;;5103449;27;20176;-79
2023/01/27 04:42:02;;;;;;;40.33;28.10;;;;;;;;;;5108455;28;20198;-79
2023/01/27 04:44:28;;;;;;;37.67;27.13;;;;;;;;;;5113676;27;20215;-80
2023/01/27 04:46:54;;;;;;;37.13;27.30;;;;;;;;;;5104605;27;20175;-79
2023/01/27 04:49:21;;;;;;;39.40;28.13;;;;;;;;;;5110302;28;20175;-79
2023/01/27 04:51:47;;;;;;;40.57;27.90;;;;;;;;;;5108190;28;20211;-79
2023/01/27 04:54:13;;;;;;;39.83;28.77;;;;;;;;;;5100921;27;20187;-79
2023/01/27 04:56:41;;;;;;;39.83;27.73;;;;;;;;;;5104310;28;20529;-79
2023/01/27 04:59:10;;;;;;;41.63;29.83;;;;;;;;;;5104174;27;20187;-79
2023/01/27 05:01:36;;;;;;;41.93;29.33;;;;;;;;;;5098191;27;20184;-79
2023/01/27 05:04:02;;;;;;;40.43;29.00;;;;;;;;;;5108847;28;20312;-78
2023/01/27 05:06:28;;;;;;;44.37;29.80;;;;;;;;;;5110973;27;20223;-78
2023/01/27 05:08:54;;;;;;;46.17;29.17;;;;;;;;;;5113630;27;20182;-79
2023/01/27 05:11:21;;;;;;;43.43;30.83;;;;;;;;;;5106002;27;20230;-79
2023/01/27 05:13:47;;;;;;;42.33;30.40;;;;;;;;;;5092020;28;20254;-78
2023/01/27 05:16:13;;;;;;;42.67;30.50;;;;;;;;;;5099801;28;20187;-78
2023/01/27 05:18:40;;;;;;;46.33;30.87;;;;;;;;;;5108243;27;20188;-78
2023/01/27 05:21:07;;;;;;;43.17;30.50;;;;;;;;;;5102780;27;20333;-79
2023/01/27 05:23:36;;;;;;;45.47;29.97;;;;;;;;;;5106458;28;20180;-79
2023/01/27 05:26:06;;;;;;;43.97;29.93;;;;;;;;;;5109937;27;20187;-78
2023/01/27 05:28:32;;;;;;;42.77;30.47;;;;;;;;;;5101287;28;20182;-78
2023/01/27 05:31:03;;;;;;;44.37;29.87;;;;;;;;;;5100460;27;20851;-80
2023/01/27 05:33:29;;;;;;;43.93;30.60;;;;;;;;;;5102536;27;20216;-79
2023/01/27 05:35:57;;;;;;;39.30;28.57;;;;;;;;;;5114298;27;20539;-79
2023/01/27 05:38:23;;;;;;;41.20;29.40;;;;;;;;;;5108034;27;20590;-79
2023/01/27 05:40:49;;;;;;;43.80;30.70;;;;;;;;;;5098492;27;20270;-78
2023/01/27 05:43:15;;;;;;;41.00;29.27;;;;;;;;;;5099101;28;20176;-78
2023/01/27 05:45:41;;;;;;;44.90;30.03;;;;;;;;;;5108748;27;20202;-78
2023/01/27 05:48:07;;;;;;;40.73;30.67;;;;;;;;;;5108637;27;20639;-79
2023/01/27 05:50:33;;;;;;;43.27;29.77;;;;;;;;;;5113583;27;20183;-78
2023/01/27 05:52:59;;;;;;;43.63;30.60;;;;;;;;;;5107516;27;20233;-78
2023/01/27 05:55:25;;;;;;;42.33;29.30;;;;;;;;;;5095154;27;20602;-78
2023/01/27 05:57:51;;;;;;;48.03;31.90;;;;;;;;;;5102065;27;20237;-78
2023/01/27 06:00:17;;;;;;;42.00;30.70;;;;;;;;;;5105596;27;20195;-79
2023/01/27 06:02:43;;;;;;;45.43;31.60;;;;;;;;;;5102328;27;20203;-79
2023/01/27 06:05:10;;;;;;;43.03;30.47;;;;;;;;;;5100465;28;20636;-80
2023/01/27 06:07:37;;;;;;;43.43;30.47;;;;;;;;;;5095200;28;20176;-79
2023/01/27 06:10:04;;;;;;;42.10;31.17;;;;;;;;;;5097434;28;20183;-79
2023/01/27 06:12:31;;;;;;;45.13;31.20;;;;;;;;;;5099264;28;20212;-79
2023/01/27 06:14:59;;;;;;;42.67;31.17;;;;;;;;;;5100251;28;20203;-79
2023/01/27 06:17:25;;;;;;;46.20;31.73;;;;;;;;;;5103993;28;20184;-79
2023/01/27 06:19:51;;;;;;;45.53;30.97;;;;;;;;;;5106980;28;20253;-80
2023/01/27 06:22:19;;;;;;;47.10;31.70;;;;;;;;;;5099098;28;20207;-79
2023/01/27 06:24:46;;;;;;;46.50;32.20;;;;;;;;;;5102822;28;20183;-78
2023/01/27 06:27:12;;;;;;;51.37;30.17;;;;;;;;;;5102458;27;20191;-79
2023/01/27 06:29:38;;;;;;;43.80;31.27;;;;;;;;;;5103020;28;20183;-79
2023/01/27 06:32:05;;;;;;;45.00;31.20;;;;;;;;;;5121835;28;20299;-78
2023/01/27 06:34:33;;;;;;;48.07;31.67;;;;;;;;;;5106166;28;20180;-78
2023/01/27 06:37:00;;;;;;;45.93;31.13;;;;;;;;;;5106917;28;20180;-78
2023/01/27 06:39:27;;;;;;;46.63;30.87;;;;;;;;;;5111567;28;20226;-79
2023/01/27 06:41:54;;;;;;;44.47;30.70;;;;;;;;;;5109589;28;20258;-78
2023/01/27 06:44:21;;;;;;;50.30;33.10;;;;;;;;;;5099730;28;20236;-80
2023/01/27 06:46:48;;;;;;;47.33;33.07;;;;;;;;;;5094621;28;20543;-82
2023/01/27 06:49:15;;;;;;;52.00;32.17;;;;;;;;;;5108861;28;20175;-80
2023/01/27 06:51:41;;;;;;;51.37;32.87;;;;;;;;;;5098709;28;20223;-80
2023/01/27 06:54:08;;;;;;;48.77;32.83;;;;;;;;;;5093437;28;20184;-79
2023/01/27 06:56:35;;;;;;;50.50;32.43;;;;;;;;;;5097768;28;20607;-78
2023/01/27 06:59:02;;;;;;;54.10;32.13;;;;;;;;;;5109350;28;20195;-80
2023/01/27 07:01:29;;;;;;;43.77;31.00;;;;;;;;;;5110261;28;20179;-79
2023/01/27 07:03:56;;;;;;;45.00;31.43;;;;;;;;;;5112790;28;20533;-78
2023/01/27 07:06:23;;;;;;;45.63;30.10;;;;;;;;;;5100223;28;20233;-80
2023/01/27 07:08:49;;;;;;;48.40;31.70;;;;;;;;;;5110265;28;20175;-79
2023/01/27 07:11:16;;;;;;;45.50;29.90;;;;;;;;;;5109814;28;20211;-80
2023/01/27 07:13:43;;;;;;;49.77;31.93;;;;;;;;;;5092953;28;20323;-79
2023/01/27 07:16:10;;;;;;;43.57;29.70;;;;;;;;;;5105024;28;20263;-78
2023/01/27 07:18:39;;;;;;;45.40;30.33;;;;;;;;;;5100451;28;20183;-79
2023/01/27 07:21:06;;;;;;;42.17;29.33;;;;;;;;;;5094391;28;20656;-78
2023/01/27 07:23:37;;;;;;;44.20;30.80;;;;;;;;;;5107964;28;20180;-80
2023/01/27 07:26:03;;;;;;;49.00;30.87;;;;;;;;;;5093846;28;20205;-80
2023/01/27 07:28:30;;;;;;;51.00;30.20;;;;;;;;;;5095290;28;20168;-78
2023/01/27 07:31:00;;;;;;;48.00;31.07;;;;;;;;;;5106322;28;20230;-78
2023/01/27 07:33:26;;;;;;;50.97;32.20;;;;;;;;;;5100574;28;20245;-80
2023/01/27 07:35:54;;;;;;;50.40;32.20;;;;;;;;;;5098043;28;20570;-79
2023/01/27 07:38:21;;;;;;;45.30;29.33;;;;;;;;;;5107382;28;20184;-79
2023/01/27 07:40:47;;;;;;;45.23;30.57;;;;;;;;;;5093559;28;20260;-80
2023/01/27 07:43:15;;;;;;;52.73;30.90;;;;;;;;;;5108446;28;20659;-78
2023/01/27 07:45:47;;;;;;;49.40;32.93;;;;;;;;;;5097815;28;20187;-79
2023/01/27 07:48:16;;;;;;;47.13;30.67;;;;;;;;;;5107084;28;20268;-80
2023/01/27 07:50:43;;;;;;;46.03;32.00;;;;;;;;;;5111301;28;20212;-79
2023/01/27 07:53:10;;;;;;;53.53;32.40;;;;;;;;;;5099850;28;20191;-79
2023/01/27 07:55:37;;;;;;;54.20;34.20;;;;;;;;;;5104128;28;20165;-79
2023/01/27 07:58:03;;;;;;;52.17;34.20;;;;;;;;;;5103547;28;20255;-80
2023/01/27 08:00:30;;;;;;;50.60;33.10;;;;;;;;;;5110080;28;20179;-79
2023/01/27 08:02:57;;;;;;;55.70;34.77;;;;;;;;;;5110373;28;20184;-78
2023/01/27 08:05:24;;;;;;;54.83;34.43;;;;;;;;;;5113812;28;20262;-79
2023/01/27 08:07:51;;;;;;;49.47;32.53;;;;;;;;;;5096810;28;20637;-79
2023/01/27 08:10:19;;;;;;;53.37;35.40;;;;;;;;;;5112258;28;20171;-78
2023/01/27 08:12:46;;;;;;;50.80;32.23;;;;;;;;;;5095084;28;20215;-79
2023/01/27 08:15:13;;;;;;;47.53;33.53;;;;;;;;;;5112218;28;20205;-80
2023/01/27 08:17:39;;;;;;;52.40;32.90;;;;;;;;;;5112609;28;20670;-80
2023/01/27 08:20:07;;;;;;;51.30;33.77;;;;;;;;;;5093935;28;20655;-79
2023/01/27 08:22:33;;;;;;;53.00;34.10;;;;;;;;;;5101421;28;20175;-78
2023/01/27 08:25:00;;;;;;;51.57;33.83;;;;;;;;;;5102594;28;20234;-80
2023/01/27 08:27:27;;;;;;;54.43;35.90;;;;;;;;;;5101099;28;20181;-78
2023/01/27 08:29:54;;;;;;;54.90;35.50;;;;;;;;;;5100189;28;20180;-79
2023/01/27 08:32:21;;;;;;;55.97;35.27;;;;;;;;;;5109572;28;20652;-78
2023/01/27 08:34:47;;;;;;;56.20;35.60;;;;;;;;;;5098326;28;20180;-79
2023/01/27 08:37:14;;;;;;;54.87;38.03;;;;;;;;;;5099988;28;20234;-79
2023/01/27 08:39:40;;;;;;;57.67;38.80;;;;;;;;;;5102391;28;20673;-78
2023/01/27 08:42:06;;;;;;;56.57;38.43;;;;;;;;;;5108478;28;20660;-80
2023/01/27 08:44:33;;;;;;;63.50;41.03;;;;;;;;;;5109672;28;20177;-78
2023/01/27 08:46:59;;;;;;;63.30;40.60;;;;;;;;;;5095211;28;20865;-80
2023/01/27 08:49:26;;;;;;;66.67;43.37;;;;;;;;;;5096791;28;20169;-79
2023/01/27 08:51:52;;;;;;;67.90;43.83;;;;;;;;;;5097921;28;20253;-79
2023/01/27 08:54:19;;;;;;;69.90;45.40;;;;;;;;;;5098814;28;20204;-78
2023/01/27 08:56:46;;;;;;;72.97;44.83;;;;;;;;;;5099182;28;20692;-80
2023/01/27 08:59:13;;;;;;;72.30;47.00;;;;;;;;;;5093086;28;20183;-80
2023/01/27 09:01:40;;;;;;;69.43;47.53;;;;;;;;;;5111649;28;20228;-80
2023/01/27 09:04:07;;;;;;;77.60;48.40;;;;;;;;;;5098267;28;20192;-79
2023/01/27 09:06:33;;;;;;;74.40;47.60;;;;;;;;;;5106901;28;20544;-79
2023/01/27 09:09:10;;;;;;;73.00;47.20;;;;;;;;;;5100680;28;20180;-80
2023/01/27 09:11:38;;;;;;;70.30;47.60;;;;;;;;;;5109724;28;20211;-79
2023/01/27 09:14:05;;;;;;;74.73;44.27;;;;;;;;;;5095779;28;20225;-80
2023/01/27 09:16:32;;;;;;;63.90;44.90;;;;;;;;;;5098342;28;20279;-78
2023/01/27 09:18:58;;;;;;;72.60;45.63;;;;;;;;;;5099456;28;20215;-80
2023/01/27 09:21:25;;;;;;;66.77;43.60;;;;;;;;;;5108032;28;20663;-79
2023/01/27 09:23:51;;;;;;;63.13;42.97;;;;;;;;;;5109645;28;20640;-79
2023/01/27 09:26:18;;;;;;;60.53;42.47;;;;;;;;;;5092349;28;20183;-79
2023/01/27 09:28:45;;;;;;;61.67;42.63;;;;;;;;;;5105884;28;20582;-80
2023/01/27 09:31:11;;;;;;;64.03;42.70;;;;;;;;;;5106573;28;20304;-80
2023/01/27 09:33:39;;;;;;;63.23;43.07;;;;;;;;;;5109146;28;20198;-80
2023/01/27 09:36:09;;;;;;;56.97;41.30;;;;;;;;;;5107358;28;20176;-80
2023/01/27 09:38:38;;;;;;;62.27;40.43;;;;;;;;;;5110278;28;20176;-80
2023/01/27 09:41:16;;;;;;;58.97;39.03;;;;;;;;;;5109575;28;20293;-79
2023/01/27 09:43:52;;;;;;;56.93;37.70;;;;;;;;;;5107496;28;20627;-80
2023/01/27 09:46:39;;;;;;;55.93;37.13;;;;;;;;;;5097183;28;20180;-80
2023/01/27 09:49:23;;;;;;;52.47;35.87;;;;;;;;;;5107673;28;20278;-79
2023/01/27 09:52:05;;;;;;;53.53;33.53;;;;;;;;;;5100823;28;20298;-78
2023/01/27 09:54:44;;;;;;;47.67;32.57;;;;;;;;;;5109176;28;20700;-78
2023/01/27 09:57:10;;;;;;;51.97;32.60;;;;;;;;;;5098726;28;20183;-79
2023/01/27 09:59:48;;;;;;;48.20;32.53;;;;;;;;;;5104596;28;20200;-79
2023/01/27 10:02:17;;;;;;;46.97;32.10;;;;;;;;;;5120946;28;20263;-78
2023/01/27 10:04:43;;;;;;;45.23;31.53;;;;;;;;;;5110545;28;20244;-79
2023/01/27 10:07:16;;;;;;;48.27;31.83;;;;;;;;;;5108655;28;20204;-80
2023/01/27 10:09:55;;;;;;;46.70;32.13;;;;;;;;;;5103601;28;20237;-80
2023/01/27 10:12:34;;;;;;;44.60;31.53;;;;;;;;;;5098444;28;20245;-79
2023/01/27 10:15:07;;;;;;;45.70;31.53;;;;;;;;;;5095582;28;20207;-79
2023/01/27 10:17:36;;;;;;;45.73;31.17;;;;;;;;;;5106643;28;20233;-80
2023/01/27 10:20:21;;;;;;;43.90;29.23;;;;;;;;;;5093586;28;20546;-80
2023/01/27 10:23:11;;;;;;;41.67;28.73;;;;;;;;;;5106604;28;20205;-79
2023/01/27 10:25:47;;;;;;;41.87;29.20;;;;;;;;;;5033036;28;20605;-80
2023/01/27 10:28:17;;;;;;;37.67;27.73;;;;;;;;;;5021543;28;20225;-79
2023/01/27 10:31:00;;;;;;;43.03;29.17;;;;;;;;;;5025756;28;20698;-79
2023/01/27 10:33:38;;;;;;;42.13;29.03;;;;;;;;;;5028377;28;20190;-80
2023/01/27 10:36:15;;;;;;;42.20;28.03;;;;;;;;;;5020698;28;20774;-80
2023/01/27 10:38:51;;;;;;;38.30;26.53;;;;;;;;;;5036796;28;20725;-80
2023/01/27 10:41:33;;;;;;;35.80;25.00;;;;;;;;;;5029982;28;20178;-79
2023/01/27 10:44:02;;;;;;;37.23;26.50;;;;;;;;;;5028692;28;20247;-79
2023/01/27 10:46:34;;;;;;;35.67;27.17;;;;;;;;;;5029451;28;20205;-79
2023/01/27 10:49:00;;;;;;;40.07;27.20;;;;;;;;;;5048620;28;20280;-80
2023/01/27 10:51:28;;;;;;;41.40;27.73;;;;;;;;;;5032187;28;20217;-79
2023/01/27 10:54:04;;;;;;;44.23;27.87;;;;;;;;;;5032069;28;20276;-79
2023/01/27 10:56:37;;;;;;;51.40;31.70;;;;;;;;;;5033111;28;20221;-79
2023/01/27 10:59:08;;;;;;;46.63;32.83;;;;;;;;;;5027779;28;20174;-80
2023/01/27 11:01:39;;;;;;;47.93;32.63;;;;;;;;;;5036730;28;20270;-79
2023/01/27 11:04:15;;;;;;;45.77;32.00;;;;;;;;;;5099928;28;20775;-78
2023/01/27 11:06:42;;;;;;;46.93;31.93;;;;;;;;;;5096715;28;20194;-80
2023/01/27 11:09:13;;;;;;;46.47;31.60;;;;;;;;;;5101469;28;20194;-79
2023/01/27 11:11:43;;;;;;;46.97;30.93;;;;;;;;;;5106767;28;20200;-80
2023/01/27 11:14:31;;;;;;;44.47;30.73;;;;;;;;;;5097306;28;20262;-79
2023/01/27 11:17:02;;;;;;;47.90;30.57;;;;;;;;;;5097269;28;20198;-80
2023/01/27 11:19:39;;;;;;;43.10;30.83;;;;;;;;;;5098485;28;20249;-79
2023/01/27 11:22:14;;;;;;;47.70;32.30;;;;;;;;;;5096622;28;20202;-80
2023/01/27 11:24:40;;;;;;;44.03;30.57;;;;;;;;;;5104054;28;20186;-78
2023/01/27 11:27:22;;;;;;;46.60;32.23;;;;;;;;;;5108646;28;20236;-80
2023/01/27 11:29:54;;;;;;;48.40;33.03;;;;;;;;;;5094634;28;20180;-79
2023/01/27 11:32:43;;;;;;;50.13;31.87;;;;;;;;;;5090246;28;20228;-80
2023/01/27 11:35:12;;;;;;;47.23;29.77;;;;;;;;;;5100736;28;20199;-79
2023/01/27 11:37:39;;;;;;;50.63;35.00;;;;;;;;;;5105646;28;20207;-80
2023/01/27 11:40:41;;;;;;;51.30;32.50;;;;;;;;;;5097969;28;20180;-79
2023/01/27 11:43:11;;;;;;;55.83;36.03;;;;;;;;;;5049469;28;20677;-79
2023/01/27 11:45:37;;;;;;;46.97;31.83;;;;;;;;;;5067477;28;20272;-78
2023/01/27 11:48:07;;;;;;;45.93;32.17;;;;;;;;;;5067618;28;20181;-79
2023/01/27 11:50:34;;;;;;;47.90;32.13;;;;;;;;;;5051270;28;20560;-77
2023/01/27 11:53:10;;;;;;;50.87;33.50;;;;;;;;;;5053093;28;20217;-78
2023/01/27 11:55:38;;;;;;;48.50;32.97;;;;;;;;;;5064171;28;20267;-78
2023/01/27 11:58:07;;;;;;;49.53;35.63;;;;;;;;;;5056174;28;20694;-78
2023/01/27 12:00:42;;;;;;;54.93;35.93;;;;;;;;;;5048147;28;20272;-79
2023/01/27 12:03:16;;;;;;;56.73;34.87;;;;;;;;;;5067367;28;20189;-79
2023/01/27 12:05:45;;;;;;;55.30;35.83;;;;;;;;;;5050995;28;20188;-77
2023/01/27 12:08:11;;;;;;;51.90;32.67;;;;;;;;;;5051198;28;20185;-79
2023/01/27 12:10:41;;;;;;;52.93;35.27;;;;;;;;;;5068096;28;20531;-78
2023/01/27 12:13:08;;;;;;;49.90;34.07;;;;;;;;;;5067514;28;20338;-78
2023/01/27 12:15:35;;;;;;;47.37;31.00;;;;;;;;;;5067896;28;20192;-78
2023/01/27 12:18:12;;;;;;;45.40;30.93;;;;;;;;;;5097209;28;20614;-79
2023/01/27 12:20:39;;;;;;;49.50;30.93;;;;;;;;;;5091307;28;20220;-78
2023/01/27 12:23:26;;;;;;;45.40;30.47;;;;;;;;;;5094695;28;20212;-77
2023/01/27 12:25:54;;;;;;;45.57;30.60;;;;;;;;;;5108120;28;20176;-79
2023/01/27 12:28:32;;;;;;;43.20;29.47;;;;;;;;;;5105469;28;20195;-78
2023/01/27 12:31:06;;;;;;;39.47;28.63;;;;;;;;;;5101040;28;20224;-78
2023/01/27 12:33:33;;;;;;;53.30;33.67;;;;;;;;;;5095740;28;20186;-79
2023/01/27 12:36:00;;;;;;;53.87;34.60;;;;;;;;;;5102766;28;20251;-79
2023/01/27 12:38:30;;;;;;;54.30;33.50;;;;;;;;;;5095299;28;20177;-79
2023/01/27 12:40:59;;;;;;;48.80;33.07;;;;;;;;;;5098941;28;20176;-78
2023/01/27 12:43:25;;;;;;;48.33;32.23;;;;;;;;;;5109935;28;20187;-78
2023/01/27 12:46:03;;;;;;;52.60;32.33;;;;;;;;;;5102373;28;20713;-78
2023/01/27 12:48:30;;;;;;;47.93;32.70;;;;;;;;;;5100161;28;20179;-77
2023/01/27 12:51:03;;;;;;;54.07;34.50;;;;;;;;;;5111262;28;20229;-79
2023/01/27 12:53:30;;;;;;;38.67;28.00;;;;;;;;;;5102044;28;20172;-78
2023/01/27 12:55:56;;;;;;;43.47;28.17;;;;;;;;;;5109695;28;20179;-79
2023/01/27 12:58:21;;;;;;;37.77;25.43;;;;;;;;;;5100071;28;20176;-78
2023/01/27 13:00:48;;;;;;;42.07;26.37;;;;;;;;;;5104457;28;20188;-78
2023/01/27 13:03:14;;;;;;;36.53;24.97;;;;;;;;;;5093738;28;20180;-79
2023/01/27 13:05:42;;;;;;;38.07;25.73;;;;;;;;;;5098655;28;20191;-78
2023/01/27 13:08:17;;;;;;;39.43;25.60;;;;;;;;;;5096993;28;20181;-78
2023/01/27 13:10:54;;;;;;;42.13;28.27;;;;;;;;;;5102931;28;20175;-78
2023/01/27 13:13:23;;;;;;;48.00;31.33;;;;;;;;;;5106250;28;20187;-80
2023/01/27 13:16:12;;;;;;;51.63;31.90;;;;;;;;;;5103179;28;20268;-78
2023/01/27 13:18:38;;;;;;;52.47;34.83;;;;;;;;;;5100413;28;20268;-78
2023/01/27 13:21:16;;;;;;;53.47;34.17;;;;;;;;;;5105831;28;20214;-79
2023/01/27 13:23:42;;;;;;;55.87;37.00;;;;;;;;;;5100537;28;20540;-78
2023/01/27 13:26:08;;;;;;;59.47;37.60;;;;;;;;;;5099998;28;20183;-79
2023/01/27 13:28:46;;;;;;;50.63;34.63;;;;;;;;;;5102469;28;20184;-80
2023/01/27 13:31:32;;;;;;;51.47;34.50;;;;;;;;;;5098323;28;20284;-78
2023/01/27 13:34:05;;;;;;;50.90;32.10;;;;;;;;;;5095530;28;20216;-77
2023/01/27 13:36:40;;;;;;;55.93;36.50;;;;;;;;;;5115362;28;20292;-77
2023/01/27 13:39:11;;;;;;;50.83;34.00;;;;;;;;;;5119732;28;20183;-79
2023/01/27 13:41:48;;;;;;;54.40;35.30;;;;;;;;;;5107841;28;20276;-79
2023/01/27 13:44:36;;;;;;;50.87;34.90;;;;;;;;;;5115419;28;20176;-79
2023/01/27 13:47:04;;;;;;;50.23;33.57;;;;;;;;;;5100515;28;20212;-79
2023/01/27 13:49:35;;;;;;;54.97;34.90;;;;;;;;;;5108920;28;20213;-79
2023/01/27 13:52:01;;;;;;;54.60;34.93;;;;;;;;;;5106344;28;20222;-79
2023/01/27 13:54:28;;;;;;;51.87;34.03;;;;;;;;;;5098177;28;20286;-80
2023/01/27 13:57:10;;;;;;;51.97;34.30;;;;;;;;;;5109013;28;20187;-79
2023/01/27 13:59:36;;;;;;;50.77;33.93;;;;;;;;;;5101190;28;20180;-79
2023/01/27 14:02:27;;;;;;;52.87;34.80;;;;;;;;;;5108035;28;20180;-79
2023/01/27 14:05:11;;;;;;;53.87;36.67;;;;;;;;;;5097197;28;20180;-79
2023/01/27 14:07:46;;;;;;;55.43;35.57;;;;;;;;;;5108078;28;20172;-79
2023/01/27 14:10:15;;;;;;;59.10;36.60;;;;;;;;;;5102008;28;20179;-80
2023/01/27 14:12:44;;;;;;;57.93;37.57;;;;;;;;;;5094884;28;20258;-80
2023/01/27 14:15:16;;;;;;;56.43;35.50;;;;;;;;;;5098083;28;20271;-79
2023/01/27 14:17:45;;;;;;;62.63;39.43;;;;;;;;;;5102866;28;26247;-78
2023/01/27 14:20:30;;;;;;;59.43;38.27;;;;;;;;;;5097449;28;20177;-80
2023/01/27 14:23:15;;;;;;;60.37;39.97;;;;;;;;;;5100274;28;20180;-78
2023/01/27 14:25:44;;;;;;;58.73;38.17;;;;;;;;;;5090617;28;20192;-78
2023/01/27 14:28:19;;;;;;;65.37;39.77;;;;;;;;;;5102730;28;20652;-79
2023/01/27 14:30:48;;;;;;;62.67;40.53;;;;;;;;;;5106062;28;23249;-80
2023/01/27 14:33:14;;;;;;;67.50;41.60;;;;;;;;;;5095771;28;20192;-79
2023/01/27 14:35:56;;;;;;;69.03;41.10;;;;;;;;;;5099927;28;20224;-78
2023/01/27 14:38:34;;;;;;;62.30;40.03;;;;;;;;;;5108836;28;20265;-79
2023/01/27 14:41:12;;;;;;;61.23;39.57;;;;;;;;;;5111030;28;20199;-79
2023/01/27 14:43:44;;;;;;;63.23;40.80;;;;;;;;;;5099822;28;20184;-79
2023/01/27 14:46:19;;;;;;;61.00;38.90;;;;;;;;;;5104252;28;20188;-79
2023/01/27 14:48:57;;;;;;;67.93;42.70;;;;;;;;;;5096785;28;20190;-78
2023/01/27 14:51:38;;;;;;;67.00;41.63;;;;;;;;;;5103003;28;20222;-78
2023/01/27 14:54:07;;;;;;;70.50;41.57;;;;;;;;;;5092943;28;20280;-78
2023/01/27 14:56:39;;;;;;;71.60;43.67;;;;;;;;;;5092931;28;20829;-79
2023/01/27 14:59:31;;;;;;;70.33;42.83;;;;;;;;;;5101783;28;20180;-78